Bom Fim do Bom Jesus, Brazil
Current Conditions -  °F | °C
As of 12:00 PM on Thursday 30 Oct 2014 (Local Time) from SBKP Reporting Station
Few Clouds Few Clouds  
Wind Chill: 88°   Ceiling: Unl
Heat Index: 88°   Visibility: 6mi
Dew Point: 55°   Wind: 14mph
Humidity: 33%   Direction: 360°N
Pressure: 29.91"   Gusts: NA
Location:  23.29°S, 47.06°W
Report Text: SBKP 301400Z 36012KT 320V030 9999 FEW035 31/13 Q1013
Loading
Personal Weather Stations






























Interactive Weather Map
Tropical Storm Tracking
New forecast layout! Learn more

10-Day Weather Forecast

Advertisements
Track Severe Weather on mobile